Time;durP1;ratioP1;P1;durP2;ratioP2;P2;SDS_P1;SDS_P2;PMS_P1;PMS_P2;Temp;Humidity;BMP_temperature;BMP_pressure;BME280_temperature;BME280_humidity;BME280_pressure;Samples;Min_cycle;Max_cycle;Signal;HPM_P1;HPM_P2
2022/11/24 00:01:07;;;;;;;21.50;6.70;;;;;;;8.64;100.00;98008.53;5023761;28;20095;-80
2022/11/24 00:03:34;;;;;;;18.27;5.63;;;;;;;8.55;100.00;98001.34;5026614;28;20092;-80
2022/11/24 00:06:09;;;;;;;12.45;3.92;;;;;;;8.66;100.00;98003.19;5026619;28;20513;-80
2022/11/24 00:08:38;;;;;;;10.68;3.58;;;;;;;8.77;100.00;98011.06;5031340;28;20475;-80
2022/11/24 00:11:08;;;;;;;11.43;3.20;;;;;;;8.53;100.00;98011.91;5026086;28;20657;-80
2022/11/24 00:13:37;;;;;;;14.40;2.97;;;;;;;8.63;100.00;97998.19;5035755;28;20049;-80
2022/11/24 00:16:22;;;;;;;12.18;2.85;;;;;;;8.76;100.00;98022.41;5024079;28;20060;-80
2022/11/24 00:18:51;;;;;;;10.73;3.28;;;;;;;8.76;100.00;98001.56;5037292;28;20052;-80
2022/11/24 00:21:19;;;;;;;14.80;3.20;;;;;;;8.76;100.00;98022.41;5008219;28;20097;-80
2022/11/24 00:23:47;;;;;;;13.85;2.65;;;;;;;8.60;100.00;97987.97;5034833;28;20049;-80
2022/11/24 00:26:17;;;;;;;11.60;2.33;;;;;;;8.74;100.00;98009.47;5022317;28;20095;-80
2022/11/24 00:28:45;;;;;;;9.32;2.53;;;;;;;8.67;100.00;98016.09;5016820;28;20050;-80
2022/11/24 00:31:21;;;;;;;13.60;2.45;;;;;;;8.70;100.00;98013.28;5015155;28;20053;-80
2022/11/24 00:33:50;;;;;;;19.63;8.05;;;;;;;8.53;100.00;98032.78;5026123;28;20085;-79
2022/11/24 00:36:19;;;;;;;26.23;8.57;;;;;;;8.27;100.00;98029.41;5019529;28;20061;-80
2022/11/24 00:38:46;;;;;;;17.02;4.88;;;;;;;8.41;100.00;98044.06;5027469;28;20080;-80
2022/11/24 00:41:13;;;;;;;34.15;5.50;;;;;;;8.17;100.00;98021.38;5032796;28;20049;-80
2022/11/24 00:43:40;;;;;;;13.70;3.10;;;;;;;8.20;100.00;98061.19;5041141;28;20107;-80
2022/11/24 00:46:06;;;;;;;11.77;2.60;;;;;;;8.20;100.00;98061.19;5038523;28;20053;-80
2022/11/24 00:48:33;;;;;;;9.88;2.53;;;;;;;8.22;100.00;98054.97;5032239;28;20578;-80
2022/11/24 00:51:02;;;;;;;9.57;2.35;;;;;;;8.30;100.00;98080.47;5032182;28;20107;-80
2022/11/24 00:53:29;;;;;;;10.70;2.50;;;;;;;8.42;100.00;98084.84;5035091;28;20376;-79
2022/11/24 00:55:56;;;;;;;12.70;2.20;;;;;;;8.19;100.00;98094.25;5037403;28;20454;-80
2022/11/24 00:58:24;;;;;;;11.18;2.40;;;;;;;8.29;100.00;98089.25;5035147;28;20487;-80
2022/11/24 01:00:51;;;;;;;13.65;3.35;;;;;;;8.27;100.00;98091.97;5032048;28;20046;-80
2022/11/24 01:03:19;;;;;;;11.65;2.35;;;;;;;8.36;100.00;98111.34;5037841;28;20124;-80
2022/11/24 01:05:46;;;;;;;15.75;3.15;;;;;;;8.29;100.00;98103.09;5035159;28;20068;-80
2022/11/24 01:14:36;;;;;;;13.07;3.20;;;;;;;7.96;100.00;98095.88;5035066;28;20048;-80
2022/11/24 01:17:13;;;;;;;11.82;2.60;;;;;;;7.86;100.00;98069.63;5020901;28;20057;-80
2022/11/24 01:19:40;;;;;;;9.20;2.47;;;;;;;8.07;100.00;98095.94;5024208;28;20041;-80
2022/11/24 01:22:12;;;;;;;15.00;4.20;;;;;;;8.01;100.00;98103.38;5039804;28;20081;-80
2022/11/24 01:25:01;;;;;;;11.02;3.00;;;;;;;8.08;100.00;98125.47;5007650;28;20111;-79
2022/11/24 01:28:00;;;;;;;7.65;2.50;;;;;;;7.89;100.00;98128.50;5030439;28;20442;-80
2022/11/24 01:31:04;;;;;;;8.52;3.10;;;;;;;7.94;100.00;98129.84;5011898;28;20042;-80
2022/11/24 01:34:01;;;;;;;10.07;2.20;;;;;;;7.99;100.00;98145.16;5017133;28;20140;-80
2022/11/24 01:36:53;;;;;;;8.88;2.38;;;;;;;7.92;100.00;98151.72;5027355;28;20438;-80
2022/11/24 01:39:52;;;;;;;11.55;2.63;;;;;;;7.85;100.00;98155.69;5029467;28;20046;-79
2022/11/24 01:42:52;;;;;;;10.63;2.67;;;;;;;7.56;100.00;98156.72;5026794;28;20115;-80
2022/11/24 01:45:39;;;;;;;8.77;2.83;;;;;;;7.53;100.00;98141.28;5021846;28;20554;-80
2022/11/24 01:48:18;;;;;;;7.28;2.20;;;;;;;7.31;100.00;98120.19;5046318;28;20446;-80
2022/11/24 01:51:11;;;;;;;9.75;2.30;;;;;;;7.49;100.00;98154.59;5023031;28;20107;-80
2022/11/24 01:53:42;;;;;;;11.93;2.20;;;;;;;7.14;100.00;98136.94;5031920;28;20115;-80
2022/11/24 01:56:11;;;;;;;9.63;2.63;;;;;;;7.26;100.00;98141.34;5035316;28;20434;-79
2022/11/24 01:58:40;;;;;;;10.90;2.67;;;;;;;7.17;100.00;98174.00;5032900;28;20053;-80
2022/11/24 02:01:07;;;;;;;14.88;4.53;;;;;;;7.36;100.00;98178.00;5031741;28;20065;-80
2022/11/24 02:03:38;;;;;;;12.45;3.28;;;;;;;7.16;100.00;98153.28;5039216;28;20048;-80
2022/11/24 02:06:12;;;;;;;11.02;3.22;;;;;;;7.20;100.00;98170.34;5034820;28;20107;-80
2022/11/24 02:08:56;;;;;;;15.63;2.95;;;;;;;7.18;100.00;98167.03;5032459;28;20045;-80
2022/11/24 02:11:27;;;;;;;15.13;2.85;;;;;;;7.20;100.00;98163.38;5032673;28;20053;-80
2022/11/24 02:13:56;;;;;;;10.02;2.83;;;;;;;7.20;100.00;98171.19;5033107;28;20472;-80
2022/11/24 02:16:22;;;;;;;9.88;2.60;;;;;;;7.18;100.00;98180.84;5028212;28;20364;-80
2022/11/24 02:18:50;;;;;;;12.43;3.08;;;;;;;7.20;100.00;98167.75;5032020;28;20111;-80
2022/11/24 02:21:17;;;;;;;16.05;3.90;;;;;;;7.13;100.00;98182.09;5033703;28;20038;-80
2022/11/24 02:24:00;;;;;;;15.65;5.45;;;;;;;7.01;100.00;98166.34;5045072;28;20052;-80
2022/11/24 02:26:27;;;;;;;9.15;2.55;;;;;;;7.28;100.00;98206.28;5039495;28;20122;-80
2022/11/24 02:28:54;;;;;;;8.00;2.38;;;;;;;7.25;100.00;98178.69;5034597;28;20041;-80
2022/11/24 02:31:21;;;;;;;11.73;2.60;;;;;;;7.18;100.00;98199.06;5031864;28;20099;-80
2022/11/24 02:33:49;;;;;;;10.38;2.75;;;;;;;7.26;100.00;98205.56;5029048;28;20402;-80
2022/11/24 02:36:16;;;;;;;9.35;2.20;;;;;;;7.17;100.00;98197.41;5032512;28;20053;-81
2022/11/24 02:38:42;;;;;;;10.15;2.50;;;;;;;6.84;100.00;98158.78;5032772;28;20080;-80
2022/11/24 02:41:15;;;;;;;11.38;2.97;;;;;;;7.19;100.00;98195.56;5032661;28;20057;-80
2022/11/24 02:43:47;;;;;;;10.25;3.03;;;;;;;7.30;100.00;98212.25;5040491;28;20383;-80
2022/11/24 02:46:14;;;;;;;7.93;2.40;;;;;;;7.32;100.00;98186.94;5041160;28;20095;-80
2022/11/24 02:48:41;;;;;;;9.07;2.60;;;;;;;7.27;100.00;98213.25;5032557;28;20627;-80
2022/11/24 02:51:08;;;;;;;10.50;3.22;;;;;;;7.34;100.00;98204.13;5032245;28;20045;-81
2022/11/24 02:53:34;;;;;;;13.57;2.63;;;;;;;7.21;100.00;98204.09;5039330;28;20057;-80
2022/11/24 02:56:01;;;;;;;11.95;2.83;;;;;;;7.27;100.00;98225.44;5032148;28;20442;-80
2022/11/24 02:58:28;;;;;;;11.85;2.38;;;;;;;7.17;100.00;98213.03;5039026;28;20102;-80
2022/11/24 03:00:56;;;;;;;15.18;2.92;;;;;;;7.33;100.00;98249.31;5036992;28;20053;-80
2022/11/24 03:03:23;;;;;;;12.07;3.35;;;;;;;7.20;100.00;98217.19;5032154;28;20739;-80
2022/11/24 03:05:50;;;;;;;11.90;3.05;;;;;;;7.45;100.00;98250.28;5031562;28;20099;-80
2022/11/24 03:08:17;;;;;;;15.25;2.60;;;;;;;7.56;100.00;98247.84;5017220;28;20577;-80
2022/11/24 03:10:43;;;;;;;12.10;2.80;;;;;;;7.60;100.00;98256.28;5032170;28;20064;-81
2022/11/24 03:13:10;;;;;;;13.25;3.25;;;;;;;7.46;100.00;98248.53;5034724;28;20076;-80
2022/11/24 03:15:37;;;;;;;19.23;3.78;;;;;;;7.43;100.00;98251.34;5022546;28;20460;-80
2022/11/24 03:18:04;;;;;;;21.05;3.85;;;;;;;7.39;100.00;98227.28;5031640;28;20535;-80
2022/11/24 03:20:30;;;;;;;14.80;3.67;;;;;;;7.49;100.00;98241.38;5032015;28;20049;-81
2022/11/24 03:22:57;;;;;;;15.35;3.35;;;;;;;7.52;100.00;98275.00;5031318;28;20620;-80
2022/11/24 03:25:24;;;;;;;11.93;3.20;;;;;;;7.64;100.00;98275.97;5023901;28;20045;-80
2022/11/24 03:27:50;;;;;;;10.95;2.47;;;;;;;7.63;100.00;98279.50;5031628;28;20450;-80
2022/11/24 03:30:17;;;;;;;17.90;4.47;;;;;;;7.46;100.00;98279.78;5031843;28;20100;-80
2022/11/24 03:32:44;;;;;;;12.90;3.60;;;;;;;7.60;100.00;98298.78;5031897;28;20380;-80
2022/11/24 03:35:11;;;;;;;21.08;4.13;;;;;;;7.52;100.00;98297.59;5030313;28;20802;-81
2022/11/24 03:37:37;;;;;;;13.10;3.47;;;;;;;7.48;100.00;98281.34;5029573;28;20060;-81
2022/11/24 03:40:05;;;;;;;14.85;2.85;;;;;;;7.77;100.00;98315.94;5035758;28;20437;-80
2022/11/24 03:42:31;;;;;;;20.58;3.90;;;;;;;7.67;100.00;98324.44;5030615;28;20096;-81
2022/11/24 03:44:58;;;;;;;12.48;3.08;;;;;;;7.74;100.00;98329.16;5018598;28;20108;-80
2022/11/24 03:47:42;;;;;;;12.70;2.67;;;;;;;7.71;100.00;98325.91;5026868;28;20069;-81
2022/11/24 03:50:08;;;;;;;11.38;2.50;;;;;;;7.60;100.00;98318.78;5036039;28;20049;-80
2022/11/24 03:52:35;;;;;;;13.02;2.95;;;;;;;7.66;100.00;98333.19;5030202;28;20111;-81
2022/11/24 03:55:02;;;;;;;13.13;3.30;;;;;;;7.46;100.00;98343.09;5037459;28;20103;-80
2022/11/24 03:57:29;;;;;;;13.57;2.90;;;;;;;7.60;100.00;98358.69;5030293;28;20820;-80
2022/11/24 03:59:55;;;;;;;11.32;2.78;;;;;;;7.47;100.00;98347.38;5038218;28;20166;-81
2022/11/24 04:02:22;;;;;;;14.02;4.50;;;;;;;7.38;100.00;98329.72;5031561;28;20667;-80
2022/11/24 04:04:50;;;;;;;16.83;3.65;;;;;;;7.56;100.00;98353.75;5031379;28;20140;-80
2022/11/24 04:07:17;;;;;;;13.60;3.78;;;;;;;7.51;100.00;98367.09;5035238;28;20049;-81
2022/11/24 04:09:44;;;;;;;14.85;3.55;;;;;;;7.62;100.00;98369.00;5034895;28;20041;-80
2022/11/24 04:14:56;;;;;;;12.55;3.05;;;;;;;7.46;100.00;98343.09;5010891;28;20050;-81
2022/11/24 04:17:23;;;;;;;18.67;3.30;;;;;;;7.50;100.00;98344.56;5025946;28;20545;-81
2022/11/24 04:19:49;;;;;;;16.10;3.20;;;;;;;7.58;100.00;98347.53;5031316;28;20049;-81
2022/11/24 04:22:16;;;;;;;13.02;3.47;;;;;;;7.54;100.00;98338.25;5034719;28;20053;-81
2022/11/24 04:24:43;;;;;;;26.02;4.43;;;;;;;7.64;100.00;98369.75;5035893;28;20096;-81
2022/11/24 04:27:10;;;;;;;18.73;3.15;;;;;;;7.84;100.00;98371.06;5033558;28;20099;-80
2022/11/24 04:29:37;;;;;;;14.90;2.88;;;;;;;7.71;100.00;98352.78;5033053;28;20497;-81
2022/11/24 04:32:04;;;;;;;17.75;3.05;;;;;;;7.74;100.00;98355.22;5033651;28;20684;-81
2022/11/24 04:34:30;;;;;;;26.63;6.30;;;;;;;7.88;100.00;98353.47;5039291;28;20468;-81
2022/11/24 04:36:57;;;;;;;14.00;3.42;;;;;;;7.91;100.00;98354.09;5036206;28;20049;-81
2022/11/24 04:39:24;;;;;;;14.93;3.13;;;;;;;7.75;100.00;98356.03;5033255;28;20049;-81
2022/11/24 04:41:54;;;;;;;12.60;3.38;;;;;;;7.74;100.00;98360.41;5033648;28;20076;-81
2022/11/24 04:44:21;;;;;;;17.15;3.47;;;;;;;7.80;100.00;98372.22;5033877;28;20103;-81
2022/11/24 04:46:47;;;;;;;13.30;3.40;;;;;;;7.68;100.00;98380.81;5032499;28;20480;-81
2022/11/24 04:49:14;;;;;;;19.02;4.00;;;;;;;7.76;100.00;98375.94;5041228;28;20054;-81
2022/11/24 04:51:41;;;;;;;13.50;2.85;;;;;;;7.60;100.00;98342.22;5035332;28;20119;-81
2022/11/24 04:54:10;;;;;;;21.05;3.58;;;;;;;7.79;100.00;98378.34;5034831;28;20088;-81
2022/11/24 04:56:38;;;;;;;17.75;4.30;;;;;;;7.76;100.00;98409.81;5035699;28;20052;-81
2022/11/24 04:59:05;;;;;;;14.32;3.17;;;;;;;7.69;100.00;98411.97;5048822;28;20108;-81
2022/11/24 05:01:34;;;;;;;13.48;3.72;;;;;;;7.68;100.00;98399.03;5044562;28;20049;-81
2022/11/24 05:04:01;;;;;;;15.98;3.28;;;;;;;7.62;100.00;98402.88;5034145;28;20059;-81
2022/11/24 05:06:27;;;;;;;16.90;2.90;;;;;;;7.85;100.00;98424.84;5031816;28;20053;-81
2022/11/24 05:08:54;;;;;;;16.98;3.15;;;;;;;7.92;100.00;98449.59;5041267;28;20053;-82
2022/11/24 05:11:21;;;;;;;12.45;2.92;;;;;;;7.84;100.00;98453.59;5036615;28;20414;-81
2022/11/24 05:13:47;;;;;;;12.35;2.60;;;;;;;7.82;100.00;98461.50;5034077;28;20630;-81
2022/11/24 05:16:14;;;;;;;15.65;3.13;;;;;;;7.80;100.00;98477.25;5046825;28;20053;-81
2022/11/24 05:18:41;;;;;;;14.95;3.80;;;;;;;7.49;100.00;98412.34;5042738;28;20053;-81
2022/11/24 05:21:08;;;;;;;18.50;4.53;;;;;;;7.73;100.00;98467.31;5034119;28;20099;-81
2022/11/24 05:23:34;;;;;;;10.85;2.70;;;;;;;7.82;100.00;98471.94;5038548;28;20049;-81
2022/11/24 05:26:02;;;;;;;11.85;2.97;;;;;;;7.75;100.00;98468.88;5031390;28;20472;-81
2022/11/24 05:28:29;;;;;;;12.25;2.92;;;;;;;7.83;100.00;98476.22;5033042;28;20805;-81
2022/11/24 05:31:01;;;;;;;14.10;2.90;;;;;;;7.78;100.00;98483.50;5034964;28;20076;-81
2022/11/24 05:33:29;;;;;;;16.35;2.85;;;;;;;7.70;100.00;98468.34;5031479;28;20060;-81
2022/11/24 05:36:00;;;;;;;12.82;3.00;;;;;;;7.65;100.00;98469.53;5030889;28;20069;-81
2022/11/24 05:38:28;;;;;;;11.35;2.45;;;;;;;7.73;100.00;98467.31;5030651;28;20537;-81
2022/11/24 05:41:03;;;;;;;11.15;2.85;;;;;;;7.54;100.00;98496.25;5033991;28;20104;-81
2022/11/24 05:43:30;;;;;;;10.23;3.20;;;;;;;7.65;100.00;98511.22;5031721;28;20060;-81
2022/11/24 05:46:00;;;;;;;11.13;2.40;;;;;;;7.83;100.00;98512.72;5031882;28;20445;-81
2022/11/24 05:48:27;;;;;;;11.27;3.00;;;;;;;7.81;100.00;98483.31;5026003;28;20068;-81
2022/11/24 05:50:55;;;;;;;13.35;2.60;;;;;;;7.94;100.00;98512.03;5018924;28;20042;-81
2022/11/24 05:53:22;;;;;;;12.38;2.80;;;;;;;7.82;100.00;98516.22;5031004;28;20053;-81
2022/11/24 05:55:49;;;;;;;14.10;2.83;;;;;;;7.90;100.00;98490.53;5019921;28;20050;-82
2022/11/24 05:58:16;;;;;;;11.52;2.47;;;;;;;7.88;100.00;98484.59;5040858;28;20504;-81
2022/11/24 06:00:42;;;;;;;17.65;4.50;;;;;;;7.72;100.00;98500.34;5034013;28;20095;-82
2022/11/24 06:03:10;;;;;;;12.68;3.42;;;;;;;7.94;100.00;98504.22;5033958;28;20052;-81
2022/11/24 06:05:37;;;;;;;8.13;2.47;;;;;;;7.86;100.00;98511.66;5031249;28;20141;-81
2022/11/24 06:08:04;;;;;;;12.48;2.80;;;;;;;7.74;100.00;98513.28;5024914;28;20096;-80
2022/11/24 06:10:31;;;;;;;11.90;3.78;;;;;;;7.80;100.00;98507.69;5023425;28;20049;-81
2022/11/24 06:12:58;;;;;;;15.65;3.55;;;;;;;7.92;100.00;98503.47;5031545;28;20103;-81
2022/11/24 06:15:24;;;;;;;9.05;2.85;;;;;;;8.05;100.00;98522.63;5032971;28;20061;-81
2022/11/24 06:17:54;;;;;;;7.32;2.63;;;;;;;7.96;100.00;98520.59;5035322;28;20054;-81
2022/11/24 06:20:22;;;;;;;13.65;2.83;;;;;;;7.94;100.00;98522.47;5031455;28;20045;-81
2022/11/24 06:22:58;;;;;;;11.07;2.45;;;;;;;7.97;100.00;98541.34;5032666;28;20498;-81
2022/11/24 06:25:26;;;;;;;10.05;2.20;;;;;;;7.92;100.00;98543.41;4993777;28;1261408;-81
2022/11/24 06:27:53;;;;;;;10.70;2.65;;;;;;;7.95;100.00;98556.25;5030265;28;20107;-81
2022/11/24 06:30:20;;;;;;;9.10;2.15;;;;;;;8.08;100.00;98564.13;5032544;28;20471;-82
2022/11/24 06:32:47;;;;;;;9.13;2.63;;;;;;;7.60;100.00;98542.75;5021539;28;20675;-81
2022/11/24 06:35:15;;;;;;;6.88;1.88;;;;;;;8.12;100.00;98593.44;5028987;28;20060;-81
2022/11/24 06:37:42;;;;;;;14.07;2.28;;;;;;;8.18;100.00;98598.31;5024374;28;20093;-81
2022/11/24 06:40:12;;;;;;;6.70;3.20;;;;;;;8.07;100.00;98578.09;5027799;28;20056;-81
2022/11/24 06:42:39;;;;;;;7.65;1.67;;;;;;;8.11;100.00;98587.41;5033689;28;20053;-81
2022/11/24 06:45:06;;;;;;;7.47;1.95;;;;;;;8.09;100.00;98563.22;5022544;28;20104;-82
2022/11/24 06:47:35;;;;;;;9.00;1.80;;;;;;;8.28;100.00;98601.16;5022940;28;20065;-81
2022/11/24 06:50:02;;;;;;;5.63;1.88;;;;;;;8.20;100.00;98598.19;5025196;28;20091;-82
2022/11/24 06:52:29;;;;;;;9.45;1.85;;;;;;;8.13;100.00;98595.13;5020107;28;20049;-81
2022/11/24 06:54:56;;;;;;;11.32;1.98;;;;;;;7.90;100.00;98601.75;5030266;28;20053;-80
2022/11/24 06:57:23;;;;;;;6.85;2.00;;;;;;;8.07;100.00;98604.16;5023467;28;20049;-81
2022/11/24 06:59:49;;;;;;;8.10;1.50;;;;;;;8.28;100.00;98635.06;5025137;28;20099;-81
2022/11/24 07:02:16;;;;;;;8.18;1.98;;;;;;;7.96;100.00;98598.75;5022523;28;20046;-81
2022/11/24 07:04:43;;;;;;;6.88;2.10;;;;;;;8.03;100.00;98631.34;5028327;28;20054;-81
2022/11/24 07:07:09;;;;;;;8.13;1.88;;;;;;;7.71;100.00;98595.03;5027913;28;20076;-81
2022/11/24 07:09:36;;;;;;;10.73;2.33;;;;;;;7.70;100.00;98614.22;5024245;28;20487;-81
2022/11/24 07:12:04;;;;;;;6.80;1.70;;;;;;;7.65;100.00;98605.84;5029697;28;20102;-82
2022/11/24 07:14:31;;;;;;;4.63;1.50;;;;;;;7.81;100.00;98624.00;5029796;28;20041;-82
2022/11/24 07:17:01;;;;;;;10.05;2.40;;;;;;;7.48;100.00;98592.97;5020990;28;20526;-82
2022/11/24 07:19:28;;;;;;;9.02;2.83;;;;;;;7.54;100.00;98609.09;5025407;28;20099;-82
2022/11/24 07:21:55;;;;;;;9.20;2.30;;;;;;;7.38;100.00;98622.16;5023204;28;20065;-82
2022/11/24 07:24:21;;;;;;;8.38;1.80;;;;;;;7.45;100.00;98627.81;5021732;28;20487;-84
2022/11/24 07:26:48;;;;;;;9.85;2.00;;;;;;;7.23;100.00;98604.81;5020854;28;20083;-81
2022/11/24 07:29:15;;;;;;;10.13;2.35;;;;;;;7.37;100.00;98654.31;5024889;28;20103;-82
2022/11/24 07:31:42;;;;;;;14.35;3.80;;;;;;;7.15;100.00;98609.63;5023852;28;20042;-82
2022/11/24 07:34:09;;;;;;;12.75;2.85;;;;;;;7.25;100.00;98618.56;5017731;28;20053;-82
2022/11/24 07:36:35;;;;;;;8.45;2.00;;;;;;;7.12;100.00;98615.00;5021734;28;20447;-82
2022/11/24 07:39:05;;;;;;;9.50;2.35;;;;;;;6.94;100.00;98612.53;5025271;28;20045;-82
2022/11/24 07:41:32;;;;;;;8.23;2.20;;;;;;;7.17;100.00;98610.34;5029473;28;20045;-82
2022/11/24 07:43:58;;;;;;;5.85;1.60;;;;;;;7.17;100.00;98600.81;5023464;28;20054;-82
2022/11/24 07:46:25;;;;;;;9.80;2.88;;;;;;;7.22;100.00;98632.63;5027422;28;20107;-82
2022/11/24 07:48:52;;;;;;;10.23;2.10;;;;;;;6.96;100.00;98610.69;5020254;28;20057;-82
2022/11/24 07:51:19;;;;;;;13.85;2.17;;;;;;;7.06;100.00;98638.78;5027314;28;20074;-81
2022/11/24 07:53:46;;;;;;;7.22;2.28;;;;;;;7.17;100.00;98646.78;5022517;28;20100;-82
2022/11/24 07:56:12;;;;;;;7.97;2.05;;;;;;;7.05;100.00;98643.16;5054579;28;20095;-82
2022/11/24 07:58:39;;;;;;;9.75;2.33;;;;;;;7.39;100.00;98695.88;5019734;28;20058;-82
2022/11/24 08:01:16;;;;;;;10.02;1.80;;;;;;;7.46;100.00;98712.00;5032541;28;20038;-82
2022/11/24 08:03:44;;;;;;;10.23;2.08;;;;;;;7.35;100.00;98703.03;5031642;28;20053;-82
2022/11/24 08:06:12;;;;;;;7.97;1.70;;;;;;;7.07;100.00;98680.31;5017281;28;20433;-82
2022/11/24 08:08:59;;;;;;;15.25;3.10;;;;;;;7.00;100.00;98672.00;5026231;28;20049;-82
2022/11/24 08:11:26;;;;;;;7.35;2.10;;;;;;;7.32;100.00;98723.19;5022828;28;20038;-82
2022/11/24 08:13:53;;;;;;;11.63;2.95;;;;;;;7.13;100.00;98712.97;5029767;28;20403;-83
2022/11/24 08:16:20;;;;;;;10.40;3.22;;;;;;;7.17;100.00;98723.13;5029343;28;20049;-83
2022/11/24 08:18:52;;;;;;;5.88;1.90;;;;;;;7.15;100.00;98718.91;5027382;28;20719;-83
2022/11/24 08:21:19;;;;;;;7.38;1.92;;;;;;;6.99;100.00;98719.78;5030101;28;20107;-83
2022/11/24 08:23:46;;;;;;;6.85;2.00;;;;;;;7.16;100.00;98721.44;5031077;28;20096;-83
2022/11/24 08:26:16;;;;;;;4.70;1.60;;;;;;;7.33;100.00;98745.69;5021784;28;20045;-83
2022/11/24 08:28:44;;;;;;;5.78;1.80;;;;;;;6.88;100.00;98701.31;5028896;28;20041;-81
2022/11/24 08:31:19;;;;;;;10.60;2.47;;;;;;;7.28;100.00;98758.13;5030350;28;20050;-80
2022/11/24 08:33:46;;;;;;;9.52;3.20;;;;;;;7.20;100.00;98768.97;5030292;28;20050;-80
2022/11/24 08:36:16;;;;;;;11.98;3.45;;;;;;;7.20;100.00;98766.34;5024087;28;20103;-81
2022/11/24 08:38:43;;;;;;;9.68;2.55;;;;;;;7.21;100.00;98752.44;5031232;28;20080;-81
2022/11/24 08:41:13;;;;;;;13.73;2.65;;;;;;;7.31;100.00;98766.63;5029566;28;20042;-81
2022/11/24 08:43:40;;;;;;;9.23;2.55;;;;;;;7.17;100.00;98767.38;5031302;28;20056;-81
2022/11/24 08:46:12;;;;;;;14.35;2.72;;;;;;;7.29;100.00;98783.22;5029987;28;20041;-81
2022/11/24 08:48:40;;;;;;;10.15;2.42;;;;;;;7.30;100.00;98772.75;5026366;28;20050;-81
2022/11/24 08:51:10;;;;;;;11.38;2.95;;;;;;;7.28;100.00;98774.59;5024122;28;20105;-82
2022/11/24 08:53:38;;;;;;;9.20;2.92;;;;;;;7.25;100.00;98772.16;5024595;28;20472;-81
2022/11/24 08:56:06;;;;;;;12.35;2.45;;;;;;;7.31;100.00;98789.19;5027155;28;20092;-82
2022/11/24 08:58:33;;;;;;;10.38;2.05;;;;;;;7.27;100.00;98765.09;5031208;28;20541;-82
2022/11/24 09:01:10;;;;;;;8.93;1.75;;;;;;;7.38;100.00;98780.97;5030483;28;20471;-82
2022/11/24 09:03:37;;;;;;;7.50;1.80;;;;;;;7.25;100.00;98761.75;5029416;28;20388;-82
2022/11/24 09:06:05;;;;;;;8.77;2.30;;;;;;;7.35;100.00;98801.13;5030712;28;20104;-81
2022/11/24 09:08:32;;;;;;;12.13;2.75;;;;;;;7.41;100.00;98806.81;5034346;28;20422;-82
2022/11/24 09:11:03;;;;;;;7.85;1.77;;;;;;;7.58;100.00;98805.91;5035492;28;20049;-82
2022/11/24 09:13:30;;;;;;;13.30;2.65;;;;;;;7.11;100.00;98733.03;5034940;28;20095;-82
2022/11/24 09:16:04;;;;;;;10.15;2.35;;;;;;;7.67;100.00;98807.16;5032378;28;20053;-82
2022/11/24 09:18:31;;;;;;;12.75;2.42;;;;;;;7.72;100.00;98805.13;5033990;28;20056;-81
2022/11/24 09:21:24;;;;;;;10.38;2.65;;;;;;;7.82;100.00;98804.59;5033587;28;20046;-82
2022/11/24 09:23:53;;;;;;;14.57;2.20;;;;;;;7.78;100.00;98799.53;5033222;28;20052;-82
2022/11/24 09:26:25;;;;;;;10.32;2.13;;;;;;;7.88;100.00;98804.22;5034676;28;20437;-82
2022/11/24 09:28:54;;;;;;;10.80;2.28;;;;;;;7.63;100.00;98766.53;5021754;28;20045;-82
2022/11/24 09:31:29;;;;;;;9.20;2.00;;;;;;;7.68;100.00;98771.50;5033896;28;20053;-82
2022/11/24 09:33:56;;;;;;;9.70;2.30;;;;;;;7.90;100.00;98807.59;5021063;28;20087;-82
2022/11/24 09:36:23;;;;;;;7.47;1.88;;;;;;;7.94;100.00;98816.91;5033659;28;20049;-82
2022/11/24 09:38:51;;;;;;;10.93;2.47;;;;;;;7.70;100.00;98788.75;5035220;28;20079;-81
2022/11/24 09:41:20;;;;;;;8.70;2.13;;;;;;;8.01;100.00;98828.66;5034005;28;20442;-82
2022/11/24 09:44:05;;;;;;;9.98;3.00;;;;;;;8.06;100.00;98799.75;5032989;28;20368;-82
2022/11/24 09:46:48;;;;;;;10.75;3.28;;;;;;;8.11;100.00;98821.16;5032303;28;20045;-82
2022/11/24 09:49:23;;;;;;;9.30;2.30;;;;;;;8.18;100.00;98810.28;5019328;28;20064;-82
2022/11/24 09:51:53;;;;;;;8.05;2.08;;;;;;;7.92;100.00;98770.09;5033710;28;20053;-82
2022/11/24 09:54:27;;;;;;;8.00;2.63;;;;;;;8.23;100.00;98817.81;5020685;28;20041;-82
2022/11/24 09:56:58;;;;;;;9.30;2.00;;;;;;;8.23;100.00;98794.34;5032579;28;20490;-81
2022/11/24 09:59:26;;;;;;;8.95;2.00;;;;;;;8.40;100.00;98819.44;5027033;28;20061;-82
2022/11/24 10:01:54;;;;;;;8.82;2.10;;;;;;;8.49;100.00;98818.94;5025520;28;20056;-82
2022/11/24 10:04:27;;;;;;;7.65;2.10;;;;;;;8.29;100.00;98782.75;5032647;28;20068;-82
2022/11/24 10:06:56;;;;;;;9.00;1.77;;;;;;;8.48;100.00;98805.97;5030814;28;20077;-83
2022/11/24 10:09:35;;;;;;;8.43;2.20;;;;;;;8.58;100.00;98807.09;5033215;28;20050;-81
2022/11/24 10:12:26;;;;;;;7.88;2.28;;;;;;;8.67;100.00;98814.38;5033026;28;20103;-82
2022/11/24 10:15:06;;;;;;;6.03;1.95;;;;;;;8.68;100.00;98804.81;5049253;28;20049;-82
2022/11/24 10:18:10;;;;;;;14.95;4.13;;;;;;;8.69;100.00;98803.84;5015402;28;20054;-82
2022/11/24 10:20:55;;;;;;;10.90;2.38;;;;;;;8.68;100.00;98812.63;5027618;28;20057;-82
2022/11/24 10:23:50;;;;;;;8.82;2.25;;;;;;;8.74;100.00;98813.06;5032722;28;20057;-82
2022/11/24 10:26:38;;;;;;;14.88;2.88;;;;;;;8.39;100.00;98788.25;5032066;28;20483;-82
2022/11/24 10:29:11;;;;;;;11.40;2.40;;;;;;;8.69;100.00;98817.75;5008363;28;20065;-82
2022/11/24 10:31:41;;;;;;;16.60;3.22;;;;;;;8.74;100.00;98805.25;5033034;28;20380;-82
2022/11/24 10:34:14;;;;;;;12.70;3.22;;;;;;;8.92;100.00;98816.34;5032713;28;20785;-82
2022/11/24 10:36:59;;;;;;;12.25;3.17;;;;;;;9.16;100.00;98813.16;5032636;28;20041;-82
2022/11/24 10:40:09;;;;;;;13.60;2.40;;;;;;;9.22;100.00;98794.47;5033865;28;20045;-83
2022/11/24 10:42:52;;;;;;;12.10;2.95;;;;;;;8.96;100.00;98766.53;5018644;28;20068;-82
2022/11/24 10:45:21;;;;;;;12.20;2.75;;;;;;;9.30;100.00;98812.28;5033324;28;20491;-82
2022/11/24 10:47:48;;;;;;;10.73;2.55;;;;;;;9.19;100.00;98770.31;5031472;28;20462;-82
2022/11/24 10:50:23;;;;;;;15.82;4.20;;;;;;;9.44;100.00;98812.25;5031539;28;20049;-81
2022/11/24 10:52:58;;;;;;;15.50;3.25;;;;;;;9.35;100.00;98806.75;5032340;28;20107;-82
2022/11/24 10:55:25;;;;;;;27.50;5.03;;;;;;;9.03;100.00;98768.69;5033720;28;20474;-82
2022/11/24 10:57:52;;;;;;;18.05;4.15;;;;;;;9.05;100.00;98774.66;5032851;28;20053;-82
2022/11/24 11:00:18;;;;;;;16.23;3.95;;;;;;;9.29;100.00;98821.03;5033758;28;20483;-82
2022/11/24 11:02:48;;;;;;;18.75;4.18;;;;;;;9.03;100.00;98776.53;5027879;28;20045;-82
2022/11/24 11:05:40;;;;;;;22.05;4.93;;;;;;;9.43;100.00;98823.63;5032005;28;20046;-82
2022/11/24 11:08:20;;;;;;;20.02;4.65;;;;;;;9.50;100.00;98816.25;5020240;28;20131;-83
2022/11/24 11:10:50;;;;;;;18.65;3.70;;;;;;;9.72;100.00;98810.50;5032332;28;20050;-83
2022/11/24 11:13:28;;;;;;;23.40;3.25;;;;;;;9.66;100.00;98814.31;5033043;28;20099;-83
2022/11/24 11:15:57;;;;;;;17.13;3.60;;;;;;;9.31;100.00;98773.03;5032543;28;20546;-83
2022/11/24 11:18:31;;;;;;;14.15;3.63;;;;;;;9.54;100.00;98824.72;5032366;28;20398;-83
2022/11/24 11:21:03;;;;;;;24.55;4.57;;;;;;;9.89;100.00;98825.88;5032269;28;20053;-82
2022/11/24 11:23:34;;;;;;;22.33;4.45;;;;;;;9.85;100.00;98820.97;5032672;28;20045;-83
2022/11/24 11:26:31;;;;;;;16.60;3.92;;;;;;;9.87;100.00;98798.19;5030352;28;20045;-83
2022/11/24 11:29:00;;;;;;;21.50;4.15;;;;;;;9.71;100.00;98798.34;5019751;28;20483;-83
2022/11/24 11:32:23;;;;;;;14.07;3.42;;;;;;;9.68;100.00;98791.56;5032132;28;20125;-83
2022/11/24 11:35:12;;;;;;;25.27;4.30;;;;;;;9.86;100.00;98809.56;5031541;28;20073;-83
2022/11/24 11:37:39;;;;;;;26.40;5.10;;;;;;;9.74;100.00;98789.44;5032259;28;20048;-83
2022/11/24 11:40:14;;;;;;;21.95;4.50;;;;;;;9.81;100.00;98795.94;5032821;28;20430;-82
2022/11/24 11:42:47;;;;;;;20.33;4.55;;;;;;;9.55;100.00;98742.81;5031036;28;20050;-83
2022/11/24 11:45:39;;;;;;;18.55;5.00;;;;;;;9.88;100.00;98778.97;5032232;28;20052;-83
2022/11/24 11:48:24;;;;;;;27.20;4.45;;;;;;;9.96;100.00;98775.81;5023073;28;20087;-83
2022/11/24 11:51:03;;;;;;;19.58;4.20;;;;;;;9.89;100.00;98783.22;5031947;28;20061;-83
2022/11/24 11:54:08;;;;;;;25.35;4.60;;;;;;;9.88;100.00;98778.97;5030908;28;20154;-83